Data for 07/04/2014

Time Sea-Level Adjusted Pressure Absolute Pressure Temperature Relative Humidity Dew Point   
(mb) (inHg) (mb) (inHg) (C) (F) (%) (C) (F)
00:05 1019 30.09 849 25.07 17.9 64.3 46 6.3 43.4
00:10 1020 30.12 849 25.07 17.8 64.1 46 6.1 42.9
00:15 1020 30.12 849 25.07 18.1 64.5 44 5.6 42.1
00:20 1020 30.12 849 25.07 18.5 65.3 41 5.2 41.3
00:25 1020 30.12 849 25.07 18.9 66 41 5.5 41.9
00:30 1020 30.12 849 25.07 18.8 65.9 42 5.7 42.3
00:35 1020 30.12 849 25.07 18.7 65.7 41 5.4 41.7
00:40 1020 30.12 849 25.07 18.7 65.7 42 5.7 42.2
00:45 1020 30.12 849 25.07 18.7 65.7 41 5.3 41.5
00:50 1020 30.12 849 25.07 19 66.2 40 5.2 41.3
00:55 1020 30.12 849 25.07 19 66.2 43 6.4 43.4
01:00 1020 30.12 849 25.07 18.7 65.6 43 6 42.8
01:05 1020 30.12 849 25.07 18.5 65.2 43 5.9 42.6
01:10 1020 30.12 849 25.07 18.3 64.9 45 6.2 43.2
01:15 1020 30.12 849 25.07 18.1 64.5 46 6.3 43.3
01:20 1020 30.12 849 25.07 18 64.4 46 6.2 43.2
01:25 1020 30.12 849 25.07 17.9 64.3 44 5.5 41.9
01:30 1020 30.12 849 25.07 18.5 65.3 41 5 41
01:35 1019 30.09 849 25.07 18.7 65.6 42 5.6 42.1
01:40 1019 30.09 849 25.07 18.6 65.5 40 4.9 40.7
01:45 1019 30.09 849 25.07 18.7 65.7 40 5 40.9
01:50 1019 30.09 849 25.07 18.5 65.4 40 4.8 40.7
01:55 1019 30.09 849 25.07 18.4 65.2 40 4.8 40.6
02:00 1019 30.09 849 25.07 18.4 65.1 41 5 40.9
02:05 1019 30.09 848 25.04 18.2 64.8 42 5.2 41.4
02:10 1019 30.09 848 25.04 18 64.4 41 4.7 40.5
02:15 1019 30.09 848 25.04 18 64.5 42 4.9 40.9
02:20 1019 30.09 849 25.07 17.7 63.8 44 5.3 41.5
02:25 1019 30.09 849 25.07 17.2 63 45 5.2 41.4
02:30 1019 30.09 849 25.07 17.1 62.9 44 4.9 40.8
02:35 1019 30.09 849 25.07 17.4 63.3 45 5.6 42.1
02:40 1019 30.09 849 25.07 17.4 63.3 46 5.7 42.3
02:45 1020 30.12 849 25.07 17 62.6 45 5.2 41.4
02:50 1020 30.12 849 25.07 17 62.5 47 5.6 42.1
02:55 1020 30.12 849 25.07 16.9 62.4 47 5.7 42.3
03:00 1020 30.12 849 25.07 16.9 62.3 47 5.7 42.3
03:05 1020 30.12 849 25.07 16.9 62.4 47 5.7 42.3
03:10 1020 30.12 849 25.07 16.8 62.3 47 5.5 41.8
03:15 1020 30.12 849 25.07 16.8 62.3 47 5.5 41.9
03:20 1020 30.12 849 25.07 17.1 62.8 46 5.3 41.6
03:25 1020 30.12 849 25.07 17.3 63.1 47 6.1 43
03:30 1020 30.12 849 25.07 16.6 62 51 6.5 43.7
03:35 1019 30.09 849 25.07 16.2 61.1 51 6.1 42.9
03:40 1020 30.12 849 25.07 15.5 59.9 53 6.1 43
03:45 1020 30.12 849 25.07 15.3 59.6 55 6.3 43.3
03:50 1020 30.12 849 25.07 15.3 59.5 52 5.4 41.8
03:55 1020 30.12 849 25.07 15.8 60.4 52 5.9 42.7
04:00 1020 30.12 849 25.07 15.5 60 52 5.8 42.4
04:05 1020 30.12 849 25.07 15.5 59.8 52 5.7 42.3
04:10 1020 30.12 849 25.07 15.3 59.5 52 5.5 41.9
04:15 1020 30.12 849 25.07 15.3 59.5 52 5.7 42.3
04:20 1020 30.12 849 25.07 15.1 59.2 53 5.7 42.2
04:25 1020 30.12 849 25.07 14.9 58.8 55 6.1 42.9
04:30 1020 30.12 849 25.07 14.3 57.7 56 5.7 42.3
04:35 1020 30.12 849 25.07 14.1 57.5 56 5.5 41.9
04:40 1020 30.12 849 25.07 14.2 57.6 56 5.6 42.1
04:45 1020 30.12 849 25.07 14.5 58.1 53 5.2 41.3
04:50 1020 30.12 849 25.07 14.7 58.4 54 5.4 41.7
04:55 1020 30.12 849 25.07 14.4 58 53 5.1 41.2
05:00 1020 30.12 849 25.07 14.6 58.3 53 5.2 41.3
05:05 1020 30.12 849 25.07 14.7 58.4 54 5.5 42
05:10 1020 30.12 849 25.07 15.2 59.4 49 4.8 40.6
05:15 1020 30.12 849 25.07 15.5 59.9 48 4.7 40.4
05:20 1020 30.12 849 25.07 15.7 60.3 47 4.5 40.1
05:25 1020 30.12 849 25.07 15.7 60.3 49 5.2 41.3
05:30 1020 30.12 849 25.07 15.4 59.8 51 5.5 41.9
05:35 1020 30.12 849 25.07 15 59 53 5.7 42.2
05:40 1020 30.12 850 25.1 15.1 59.2 52 5.3 41.6
05:45 1020 30.12 850 25.1 15.3 59.5 55 6.3 43.4
05:50 1020 30.12 850 25.1 15.6 60 49 5 41.1
05:55 1020 30.12 850 25.1 16.1 61 49 5.6 42.1
06:00 1020 30.12 850 25.1 16.3 61.3 49 5.5 41.9
06:05 1020 30.12 850 25.1 16.4 61.6 48 5.6 42.1
06:10 1020 30.12 850 25.1 16.7 62.1 49 6.2 43.2
06:15 1020 30.12 850 25.1 16.9 62.4 48 6 42.9
06:20 1021 30.15 850 25.1 17 62.5 49 6.3 43.3
06:25 1021 30.15 850 25.1 17.1 62.8 50 6.8 44.3
06:30 1021 30.15 850 25.1 17.4 63.3 48 6.4 43.6
06:35 1021 30.15 850 25.1 17.5 63.5 50 7.1 44.9
06:40 1021 30.15 850 25.1 17.7 63.9 49 6.9 44.4
06:45 1021 30.15 850 25.1 17.8 64.1 48 6.7 44
06:50 1021 30.15 850 25.1 18.3 64.9 47 7 44.7
06:55 1021 30.15 850 25.1 18.5 65.3 48 7.4 45.3
07:00 1021 30.15 850 25.1 18.7 65.6 48 7.6 45.6
07:05 1021 30.15 850 25.1 19.1 66.3 49 8.3 46.9
07:10 1021 30.15 850 25.1 19.3 66.7 49 8.4 47.1
07:15 1021 30.15 850 25.1 19.4 66.9 46 7.7 45.8
07:20 1021 30.15 850 25.1 19.5 67.1 45 7.4 45.4
07:25 1021 30.15 850 25.1 20.2 68.3 46 8.5 47.2
07:30 1020 30.12 850 25.1 20.1 68.1 43 7.2 45
07:35 1021 30.15 850 25.1 20.4 68.8 42 7.1 44.8
07:40 1021 30.15 850 25.1 21.1 70 38 6.6 43.8
07:45 1021 30.15 850 25.1 22.3 72.1 38 7.4 45.3
07:50 1021 30.15 850 25.1 22.8 73.1 37 7.4 45.3
07:55 1021 30.15 850 25.1 23 73.4 36 7.4 45.4
08:00 1021 30.15 850 25.1 23.2 73.8 38 8.2 46.7
08:05 1021 30.15 850 25.1 23.2 73.7 38 8.1 46.5
08:10 1021 30.15 850 25.1 23.3 74 36 7.7 45.9
08:15 1021 30.15 850 25.1 23.8 74.8 36 7.9 46.2
08:20 1021 30.15 850 25.1 23.8 74.8 35 7.6 45.7
08:25 1021 30.15 850 25.1 23.8 74.8 33 6.8 44.3
08:30 1021 30.15 850 25.1 23.3 74 33 6.5 43.6
08:35 1021 30.15 850 25.1 23.7 74.6 33 6.8 44.2
08:40 1021 30.15 850 25.1 23.7 74.6 30 5.2 41.3
08:45 1021 30.15 850 25.1 23.6 74.4 32 6.2 43.1
08:50 1020 30.12 850 25.1 23.4 74.1 36 7.5 45.6
08:55 1020 30.12 850 25.1 24.5 76.1 34 7.8 46
09:00 1020 30.12 850 25.1 25.2 77.3 32 7.7 45.9
09:05 1020 30.12 850 25.1 25.5 78 33 8.4 47.1
09:10 1020 30.12 850 25.1 25.5 78 30 6.7 44
09:15 1020 30.12 850 25.1 25.7 78.3 30 7.3 45.1
09:20 1020 30.12 849 25.07 25.9 78.7 28 6.2 43.2
09:25 1020 30.12 849 25.07 26.7 80 27 6.6 43.9
09:30 1020 30.12 849 25.07 26.4 79.6 28 6.6 43.9
09:35 1020 30.12 849 25.07 26 78.9 28 6.4 43.4
09:40 1020 30.12 849 25.07 26.2 79.1 29 7 44.6
09:45 1020 30.12 849 25.07 26.7 80 28 7 44.7
09:50 1020 30.12 849 25.07 27.1 80.9 29 7.9 46.1
09:55 1020 30.12 849 25.07 27.1 80.8 30 8.2 46.7
10:00 1020 30.12 849 25.07 27.4 81.3 27 7.3 45.1
10:05 1020 30.12 849 25.07 27 80.7 29 7.7 45.9
10:10 1020 30.12 849 25.07 27.3 81.2 27 6.9 44.5
10:15 1020 30.12 849 25.07 27.2 81 27 6.8 44.2
10:20 1020 30.12 849 25.07 27.5 81.6 27 7.3 45.2
10:25 1020 30.12 849 25.07 27.1 80.8 28 7.2 44.9
10:30 1020 30.12 849 25.07 27.1 80.8 28 7.3 45.2
10:35 1020 30.12 849 25.07 28.8 83.9 26 7.8 46
10:40 1020 30.12 849 25.07 29 84.1 27 8.6 47.6
10:45 1020 30.12 849 25.07 28 82.5 29 8.7 47.6
10:50 1020 30.12 849 25.07 28.7 83.7 26 7.7 45.9
10:55 1020 30.12 849 25.07 29 84.2 26 8.2 46.7
11:00 1020 30.12 849 25.07 28.5 83.2 26 7.4 45.3
11:05 1020 30.12 849 25.07 29 84.2 25 7 44.7
11:10 1020 30.12 849 25.07 28.5 83.3 26 7.4 45.3
11:15 1020 30.12 849 25.07 28.8 83.9 25 7 44.6
11:20 1020 30.12 849 25.07 28.8 83.8 27 8.3 46.9
11:25 1020 30.12 849 25.07 29 84.2 26 8 46.5
11:30 1020 30.12 849 25.07 29.3 84.7 26 8.3 47
11:35 1020 30.12 849 25.07 29.1 84.4 27 8.5 47.3
11:40 1020 30.12 849 25.07 29.1 84.4 27 8.3 47
11:45 1020 30.12 849 25.07 29.3 84.8 25 7.7 45.8
11:50 1020 30.12 849 25.07 29.9 85.9 26 8.7 47.7
11:55 1019 30.09 849 25.07 29.2 84.5 26 8.1 46.5
12:00 1019 30.09 849 25.07 29.9 85.9 24 7.6 45.7
12:05 1019 30.09 849 25.07 30.5 86.9 23 7.6 45.7
12:10 1019 30.09 848 25.04 30.7 87.3 24 8.5 47.2
12:15 1019 30.09 848 25.04 30.7 87.2 24 8.3 46.9
12:20 1019 30.09 848 25.04 30.1 86.2 25 8.5 47.3
12:25 1019 30.09 848 25.04 30.6 87.1 22 6.9 44.5
12:30 1019 30.09 848 25.04 31.3 88.4 22 7.3 45.1
12:35 1019 30.09 848 25.04 31.6 88.9 21 7.1 44.7
12:40 1019 30.09 848 25.04 31.2 88.2 21 6.6 43.9
12:45 1019 30.09 848 25.04 30.9 87.6 22 7.3 45.1
12:50 1019 30.09 848 25.04 30.9 87.7 22 7.2 45
12:55 1019 30.09 848 25.04 30.7 87.2 23 7.3 45.2
13:00 1019 30.09 848 25.04 31 87.8 22 7.1 44.8
13:05 1019 30.09 848 25.04 31 87.8 22 7.2 45
13:10 1019 30.09 848 25.04 30.8 87.5 23 7.4 45.4
13:15 1019 30.09 848 25.04 30.7 87.3 21 6.3 43.4
13:20 1019 30.09 848 25.04 31.4 88.5 20 5.9 42.6
13:25 1019 30.09 848 25.04 31.8 89.2 19 5.7 42.2
13:30 1018 30.06 848 25.04 31.7 89 17 4.1 39.4
13:35 1018 30.06 848 25.04 32.1 89.9 18 4.9 40.8
13:40 1018 30.06 848 25.04 32.6 90.7 17 5 41
13:45 1018 30.06 848 25.04 32.6 90.6 17 5.1 41.3
13:50 1018 30.06 847 25.01 32.6 90.7 19 6.1 42.9
13:55 1018 30.06 847 25.01 32.4 90.3 18 5.4 41.7
14:00 1018 30.06 847 25.01 32.1 89.7 19 5.8 42.4
14:05 1018 30.06 847 25.01 32.6 90.6 19 6.1 43
14:10 1018 30.06 847 25.01 32.4 90.3 18 5.8 42.4
14:15 1018 30.06 847 25.01 32.1 89.8 18 5.4 41.7
14:20 1018 30.06 847 25.01 32.1 89.8 19 6.2 43.1
14:25 1018 30.06 847 25.01 31.7 89.1 19 5.6 42.2
14:30 1018 30.06 847 25.01 31.6 88.9 17 4 39.1
14:35 1018 30.06 847 25.01 32.5 90.5 15 3.3 37.9
14:40 1018 30.06 847 25.01 33.2 91.8 15 3.3 38
14:45 1018 30.06 847 25.01 32.3 90.1 15 3.2 37.7
14:50 1018 30.06 847 25.01 32.8 91.1 15 3.6 38.5
14:55 1018 30.06 847 25.01 33 91.4 15 3.7 38.6
15:00 1018 30.06 847 25.01 32.7 90.8 17 4.6 40.2
15:05 1018 30.06 847 25.01 32.6 90.7 16 4.2 39.5
15:10 1018 30.06 847 25.01 32.4 90.4 16 4 39.2
15:15 1018 30.06 847 25.01 32.9 91.2 16 4.1 39.3
15:20 1018 30.06 847 25.01 32.7 90.9 15 3.3 37.9
15:25 1018 30.06 847 25.01 32.1 89.7 16 3.9 39
15:30 1018 30.06 847 25.01 31.5 88.6 17 3.9 38.9
15:35 1018 30.06 847 25.01 31.1 87.9 17 3.7 38.7
15:40 1017 30.03 847 25.01 31.1 88 21 6.4 43.4
15:45 1018 30.06 847 25.01 30.9 87.7 18 4.3 39.7
15:50 1018 30.06 848 25.04 29.2 84.6 24 7.1 44.7
15:55 1019 30.09 848 25.04 25.2 77.4 33 8 46.5
16:00 1019 30.09 848 25.04 22.9 73.1 45 10.4 50.7
16:05 1020 30.12 849 25.07 21 69.8 54 11.4 52.5
16:10 1020 30.12 849 25.07 20.3 68.5 50 9.7 49.4
16:15 1020 30.12 849 25.07 20.4 68.7 45 8.2 46.8
16:20 1020 30.12 849 25.07 21.2 70.2 43 8.4 47.1
16:25 1020 30.12 849 25.07 21.8 71.2 33 5.2 41.3
16:30 1019 30.09 848 25.04 22.9 73.1 39 8.5 47.4
16:35 1019 30.09 848 25.04 22.6 72.7 34 5.9 42.7
16:40 1018 30.06 847 25.01 22.6 72.6 37 7.3 45.2
16:45 1018 30.06 847 25.01 22.2 71.9 40 8.1 46.5
16:50 1018 30.06 847 25.01 21.8 71.3 43 8.9 48.1
16:55 1018 30.06 847 25.01 21.7 71.1 42 8.5 47.3
17:00 1018 30.06 847 25.01 22.1 71.8 39 7.8 46
17:05 1018 30.06 847 25.01 22.6 72.7 36 6.9 44.3
17:10 1018 30.06 847 25.01 23.3 73.9 35 7.2 45
17:15 1018 30.06 847 25.01 23.7 74.6 37 8.4 47.1
17:20 1018 30.06 847 25.01 23.5 74.3 38 8.7 47.6
17:25 1018 30.06 847 25.01 23.6 74.5 37 8.1 46.6
17:30 1018 30.06 847 25.01 23.8 74.8 35 7.6 45.7
17:35 1018 30.06 847 25.01 23.8 74.8 35 7.7 45.9
17:40 1018 30.06 847 25.01 23.8 74.9 36 8 46.4
17:45 1018 30.06 848 25.04 23.7 74.6 35 7.5 45.5
17:50 1018 30.06 848 25.04 23.8 74.9 35 7.7 45.9
17:55 1018 30.06 848 25.04 23.9 75 35 7.6 45.6
18:00 1018 30.06 847 25.01 24 75.2 34 7.3 45.1
18:05 1018 30.06 847 25.01 24.4 75.8 32 7 44.5
18:10 1018 30.06 847 25.01 24.7 76.4 31 6.6 43.9
18:15 1018 30.06 847 25.01 24.8 76.6 31 6.6 43.9
18:20 1018 30.06 847 25.01 24.9 76.9 32 7.4 45.3
18:25 1018 30.06 847 25.01 24.7 76.5 34 7.9 46.2
18:30 1018 30.06 847 25.01 24.6 76.3 35 8.2 46.8
18:35 1018 30.06 847 25.01 24.5 76.2 34 8 46.4
18:40 1018 30.06 847 25.01 24.5 76.1 33 7.4 45.3
18:45 1018 30.06 847 25.01 24.6 76.2 35 8.3 46.9
18:50 1018 30.06 847 25.01 24.4 75.8 35 8.2 46.8
18:55 1018 30.06 847 25.01 24.4 76 35 8.2 46.8
19:00 1018 30.06 847 25.01 24.4 76 35 8 46.5
19:05 1018 30.06 847 25.01 24.6 76.2 33 7.7 45.8
19:10 1018 30.06 847 25.01 24.6 76.2 34 7.8 46.1
19:15 1018 30.06 847 25.01 24.5 76.1 34 7.7 45.9
19:20 1018 30.06 847 25.01 24.5 76 33 7.4 45.2
19:25 1017 30.03 847 25.01 24.6 76.3 31 6.6 43.8
19:30 1017 30.03 847 25.01 24.7 76.5 32 7 44.6
19:35 1017 30.03 847 25.01 24.5 76.2 31 6.6 44
19:40 1017 30.03 847 25.01 24.5 76.1 30 6.2 43.1
19:45 1018 30.06 847 25.01 24.6 76.3 30 6.1 43
19:50 1018 30.06 847 25.01 24.6 76.3 29 5.6 42.1
19:55 1018 30.06 847 25.01 24.4 76 29 5.7 42.3
20:00 1018 30.06 847 25.01 24.3 75.7 30 5.8 42.4
20:05 1018 30.06 847 25.01 24.1 75.3 30 5.6 42
20:10 1018 30.06 847 25.01 23.9 75.1 30 5.7 42.3
20:15 1018 30.06 847 25.01 23.8 74.8 31 5.8 42.5
20:20 1018 30.06 847 25.01 23.7 74.6 32 6.1 42.9
20:25 1018 30.06 847 25.01 23.4 74.1 32 5.9 42.6
20:30 1018 30.06 847 25.01 23.2 73.8 32 5.7 42.3
20:35 1018 30.06 847 25.01 23.2 73.7 32 5.8 42.5
20:40 1018 30.06 847 25.01 23.1 73.5 33 6.1 43.1
20:45 1018 30.06 848 25.04 22.8 73.1 33 6 42.8
20:50 1018 30.06 848 25.04 22.7 72.9 34 6.1 42.9
20:55 1018 30.06 848 25.04 22.7 72.8 34 6 42.8
21:00 1018 30.06 848 25.04 22.8 73.1 33 5.9 42.7
21:05 1019 30.09 848 25.04 23 73.4 32 5.8 42.5
21:10 1019 30.09 848 25.04 22.9 73.2 33 6.1 43.1
21:15 1019 30.09 848 25.04 22.4 72.3 35 6.5 43.7
21:20 1019 30.09 848 25.04 22.1 71.8 36 6.7 44
21:25 1019 30.09 848 25.04 21.8 71.2 38 7.1 44.8
21:30 1019 30.09 848 25.04 21.5 70.7 38 6.9 44.5
21:35 1019 30.09 848 25.04 21.6 70.8 38 6.7 44.1
21:40 1019 30.09 848 25.04 21.6 71 38 6.9 44.4
21:45 1019 30.09 848 25.04 21.6 70.9 38 7 44.5
21:50 1019 30.09 848 25.04 21.4 70.5 39 6.9 44.4
21:55 1019 30.09 848 25.04 21.4 70.5 39 7 44.7
22:00 1019 30.09 848 25.04 21.2 70.2 39 7 44.6
22:05 1019 30.09 848 25.04 21.1 69.9 39 6.9 44.4
22:10 1019 30.09 848 25.04 20.8 69.4 41 7.2 45
22:15 1019 30.09 848 25.04 20.8 69.4 39 6.6 43.8
22:20 1019 30.09 848 25.04 20.8 69.4 40 6.9 44.5
22:25 1019 30.09 848 25.04 20.8 69.4 39 6.5 43.7
22:30 1019 30.09 848 25.04 20.6 69 40 6.6 43.8
22:35 1019 30.09 848 25.04 20.4 68.8 40 6.5 43.7
22:40 1019 30.09 848 25.04 20.4 68.6 40 6.4 43.6
22:45 1019 30.09 848 25.04 20.4 68.7 39 6.1 43.1
22:50 1019 30.09 848 25.04 20.5 69 39 6.3 43.3
22:55 1019 30.09 848 25.04 20.6 69 39 6.2 43.1
23:00 1019 30.09 848 25.04 20.8 69.4 38 6.3 43.3
23:05 1019 30.09 848 25.04 20.8 69.4 39 6.5 43.6
23:10 1019 30.09 848 25.04 20.7 69.2 39 6.5 43.7
23:15 1019 30.09 848 25.04 20.7 69.3 39 6.3 43.4
23:20 1019 30.09 848 25.04 20.8 69.4 39 6.6 43.8
23:25 1019 30.09 848 25.04 20.8 69.4 39 6.5 43.7
23:30 1019 30.09 848 25.04 20.8 69.5 39 6.4 43.5
23:35 1019 30.09 848 25.04 20.8 69.4 39 6.6 43.9
23:40 1019 30.09 848 25.04 20.6 69.1 39 6.4 43.6
23:45 1019 30.09 849 25.07 20.8 69.4 39 6.5 43.7
23:50 1019 30.09 848 25.04 20.6 69.1 39 6.5 43.8
23:55 1019 30.09 849 25.07 20.6 69 40 6.7 44.1
24:00 1019 30.09 849 25.07 20.3 68.5 43 7.3 45.2